Time;durP1;ratioP1;P1;durP2;ratioP2;P2;SDS_P1;SDS_P2;PMS_P1;PMS_P2;Temp;Humidity;BMP_temperature;BMP_pressure;BME280_temperature;BME280_humidity;BME280_pressure;Samples;Min_cycle;Max_cycle;Signal;HPM_P1;HPM_P2
2022/07/08 00:02:20;;;;;;;8.60;2.33;;;;;;;;;;4953822;28;20019;-73
2022/07/08 00:05:05;;;;;;;6.80;2.03;;;;;;;;;;4950998;28;20494;-74
2022/07/08 00:07:51;;;;;;;5.43;2.75;;;;;;;;;;4949728;28;20023;-74
2022/07/08 00:10:37;;;;;;;5.30;2.03;;;;;;;;;;4950489;28;20269;-74
2022/07/08 00:13:22;;;;;;;7.55;2.20;;;;;;;;;;4950303;28;20050;-72
2022/07/08 00:16:08;;;;;;;5.97;2.08;;;;;;;;;;4950053;28;20058;-71
2022/07/08 00:18:53;;;;;;;4.03;1.90;;;;;;;;;;4949739;28;20110;-70
2022/07/08 00:21:39;;;;;;;4.72;2.00;;;;;;;;;;4950517;28;20049;-72
2022/07/08 00:24:24;;;;;;;6.20;2.40;;;;;;;;;;4950069;28;20023;-71
2022/07/08 00:27:10;;;;;;;6.72;2.47;;;;;;;;;;4938227;28;20077;-70
2022/07/08 00:29:56;;;;;;;7.53;2.22;;;;;;;;;;4950471;28;20019;-71
2022/07/08 00:32:42;;;;;;;4.68;2.08;;;;;;;;;;4958671;28;20552;-69
2022/07/08 00:35:27;;;;;;;7.25;2.25;;;;;;;;;;4951430;28;20023;-71
2022/07/08 00:38:13;;;;;;;7.75;2.80;;;;;;;;;;4963142;28;20118;-71
2022/07/08 00:40:58;;;;;;;5.82;2.10;;;;;;;;;;4949199;28;20032;-70
2022/07/08 00:43:45;;;;;;;6.35;2.25;;;;;;;;;;4950044;28;20027;-71
2022/07/08 00:46:31;;;;;;;5.63;2.05;;;;;;;;;;4949899;28;20027;-71
2022/07/08 00:49:17;;;;;;;6.85;2.25;;;;;;;;;;4951465;28;20023;-74
2022/07/08 00:52:02;;;;;;;12.70;3.15;;;;;;;;;;4958415;28;20152;-71
2022/07/08 00:54:48;;;;;;;8.98;2.80;;;;;;;;;;4950769;28;20462;-70
2022/07/08 00:57:35;;;;;;;9.18;2.45;;;;;;;;;;4947793;28;20058;-72
2022/07/08 01:00:21;;;;;;;7.72;2.30;;;;;;;;;;4949103;28;20478;-70
2022/07/08 01:03:06;;;;;;;10.95;2.83;;;;;;;;;;4964240;28;20029;-70
2022/07/08 01:05:52;;;;;;;10.52;2.85;;;;;;;;;;4949697;28;20019;-71
2022/07/08 01:08:38;;;;;;;10.63;2.97;;;;;;;;;;4948774;28;20027;-74
2022/07/08 01:11:24;;;;;;;6.13;2.42;;;;;;;;;;4947903;28;20020;-74
2022/07/08 01:14:10;;;;;;;9.43;2.65;;;;;;;;;;4938475;28;20027;-73
2022/07/08 01:16:56;;;;;;;10.65;3.10;;;;;;;;;;4943686;28;20050;-75
2022/07/08 01:19:41;;;;;;;7.80;2.72;;;;;;;;;;4948663;28;20057;-75
2022/07/08 01:22:27;;;;;;;10.05;3.05;;;;;;;;;;4948455;28;20023;-74
2022/07/08 01:25:12;;;;;;;5.88;2.38;;;;;;;;;;4946957;28;20106;-74
2022/07/08 01:27:58;;;;;;;12.30;2.83;;;;;;;;;;4947641;28;20031;-73
2022/07/08 01:30:43;;;;;;;7.50;2.80;;;;;;;;;;4949151;28;20474;-69
2022/07/08 01:33:29;;;;;;;9.23;2.90;;;;;;;;;;4960424;28;20062;-69
2022/07/08 01:36:15;;;;;;;9.98;3.58;;;;;;;;;;4950312;28;20031;-69
2022/07/08 01:39:00;;;;;;;10.68;2.65;;;;;;;;;;4949993;28;20019;-69
2022/07/08 01:41:46;;;;;;;8.00;2.58;;;;;;;;;;4949700;28;20469;-69
2022/07/08 01:44:32;;;;;;;9.60;2.72;;;;;;;;;;4961711;28;20444;-73
2022/07/08 01:47:17;;;;;;;8.55;2.63;;;;;;;;;;4950300;28;20031;-68
2022/07/08 01:50:03;;;;;;;6.43;2.70;;;;;;;;;;4948305;28;20594;-67
2022/07/08 01:52:49;;;;;;;7.07;3.00;;;;;;;;;;4938193;28;20073;-67
2022/07/08 01:55:34;;;;;;;6.88;2.30;;;;;;;;;;4952209;28;20027;-67
2022/07/08 01:58:20;;;;;;;8.02;2.33;;;;;;;;;;4952583;28;20036;-68
2022/07/08 02:01:05;;;;;;;8.98;2.55;;;;;;;;;;4952594;28;20023;-68
2022/07/08 02:03:51;;;;;;;8.45;3.25;;;;;;;;;;4956653;28;20031;-67
2022/07/08 02:06:36;;;;;;;9.75;2.72;;;;;;;;;;4945015;28;20045;-72
2022/07/08 02:09:22;;;;;;;10.32;3.35;;;;;;;;;;4952316;28;20482;-71
2022/07/08 02:12:20;;;;;;;4.25;1.95;;;;;;;;;;4952324;28;20102;-71
2022/07/08 02:15:07;;;;;;;8.15;2.53;;;;;;;;;;4953207;28;20031;-71
2022/07/08 02:17:53;;;;;;;9.13;2.65;;;;;;;;;;4959387;28;20482;-71
2022/07/08 02:20:38;;;;;;;9.68;2.38;;;;;;;;;;5001991;28;20027;-69
2022/07/08 02:23:24;;;;;;;5.72;2.58;;;;;;;;;;4950927;28;20043;-69
2022/07/08 02:26:10;;;;;;;8.95;3.17;;;;;;;;;;4950966;28;20015;-69
2022/07/08 02:28:56;;;;;;;4.80;2.60;;;;;;;;;;4952106;28;20031;-70
2022/07/08 02:31:42;;;;;;;9.77;2.80;;;;;;;;;;4951996;28;20027;-70
2022/07/08 02:34:27;;;;;;;6.50;2.50;;;;;;;;;;4944659;28;20032;-71
2022/07/08 02:37:13;;;;;;;8.82;2.88;;;;;;;;;;4942201;28;20039;-69
2022/07/08 02:39:59;;;;;;;13.40;3.10;;;;;;;;;;4951863;28;20214;-71
2022/07/08 02:42:44;;;;;;;7.85;2.50;;;;;;;;;;4951947;28;20380;-74
2022/07/08 02:45:30;;;;;;;9.75;2.78;;;;;;;;;;4952148;28;20023;-73
2022/07/08 02:48:15;;;;;;;5.50;2.38;;;;;;;;;;4951936;28;20031;-73
2022/07/08 02:51:01;;;;;;;12.77;2.60;;;;;;;;;;4951888;28;20012;-74
2022/07/08 02:53:47;;;;;;;9.00;2.80;;;;;;;;;;4951498;28;20023;-72
2022/07/08 02:56:33;;;;;;;8.43;2.90;;;;;;;;;;4951707;28;20058;-73
2022/07/08 02:59:18;;;;;;;7.38;3.22;;;;;;;;;;4952767;28;20027;-74
2022/07/08 03:02:04;;;;;;;8.25;2.35;;;;;;;;;;4953716;28;20497;-73
2022/07/08 03:04:51;;;;;;;13.32;3.78;;;;;;;;;;4950424;28;20027;-75
2022/07/08 03:07:37;;;;;;;9.02;2.92;;;;;;;;;;4952024;28;20019;-73
2022/07/08 03:10:22;;;;;;;6.82;2.95;;;;;;;;;;4951175;28;20069;-73
2022/07/08 03:13:08;;;;;;;10.15;2.95;;;;;;;;;;4965537;28;20020;-73
2022/07/08 03:15:53;;;;;;;12.45;3.38;;;;;;;;;;4950745;28;20023;-70
2022/07/08 03:18:39;;;;;;;10.50;3.33;;;;;;;;;;4964174;28;20126;-71
2022/07/08 03:21:24;;;;;;;11.75;3.13;;;;;;;;;;4952490;28;20069;-70
2022/07/08 03:24:10;;;;;;;10.30;2.70;;;;;;;;;;4950703;28;20074;-70
2022/07/08 03:26:56;;;;;;;6.03;2.67;;;;;;;;;;4951645;28;20019;-70
2022/07/08 03:29:41;;;;;;;6.82;2.60;;;;;;;;;;4951542;28;20027;-71
2022/07/08 03:32:28;;;;;;;10.38;3.03;;;;;;;;;;4954608;28;20563;-69
2022/07/08 03:35:13;;;;;;;8.95;3.17;;;;;;;;;;4951701;28;20024;-71
2022/07/08 03:37:59;;;;;;;8.65;3.35;;;;;;;;;;4951247;28;20039;-72
2022/07/08 03:43:49;;;;;;;10.82;3.10;;;;;;;;;;4949898;28;20293;-73
2022/07/08 03:46:35;;;;;;;10.02;2.97;;;;;;;;;;4951338;28;20031;-73
2022/07/08 03:49:20;;;;;;;8.15;2.90;;;;;;;;;;4956124;28;20035;-74
2022/07/08 03:52:06;;;;;;;5.70;2.40;;;;;;;;;;4959543;28;20391;-72
2022/07/08 03:54:52;;;;;;;6.45;3.15;;;;;;;;;;4949508;28;20081;-71
2022/07/08 03:57:37;;;;;;;11.73;2.85;;;;;;;;;;4950790;28;20054;-72
2022/07/08 04:00:23;;;;;;;9.95;2.92;;;;;;;;;;4951928;28;20057;-71
2022/07/08 04:03:09;;;;;;;6.55;2.42;;;;;;;;;;4943677;28;20027;-71
2022/07/08 04:05:55;;;;;;;5.00;1.90;;;;;;;;;;4950686;28;20019;-72
2022/07/08 04:08:41;;;;;;;6.10;2.00;;;;;;;;;;4950712;28;20028;-71
2022/07/08 04:11:27;;;;;;;8.15;2.83;;;;;;;;;;4950246;28;20027;-74
2022/07/08 04:14:13;;;;;;;6.65;2.55;;;;;;;;;;4949253;28;20367;-70
2022/07/08 04:16:58;;;;;;;7.57;2.63;;;;;;;;;;4950660;28;20123;-70
2022/07/08 04:19:44;;;;;;;7.30;2.55;;;;;;;;;;4950488;28;20442;-71
2022/07/08 04:22:29;;;;;;;10.55;3.25;;;;;;;;;;4949336;28;20027;-71
2022/07/08 04:25:15;;;;;;;8.70;2.65;;;;;;;;;;4950360;28;20019;-70
2022/07/08 04:28:00;;;;;;;11.90;2.47;;;;;;;;;;4951525;28;20508;-71
2022/07/08 04:30:46;;;;;;;9.20;3.25;;;;;;;;;;4950077;28;20389;-73
2022/07/08 04:33:31;;;;;;;9.30;3.60;;;;;;;;;;4957824;28;20022;-68
2022/07/08 04:36:17;;;;;;;6.93;2.53;;;;;;;;;;4950875;28;20034;-68
2022/07/08 04:39:03;;;;;;;11.23;4.18;;;;;;;;;;4951700;28;20035;-68
2022/07/08 04:41:48;;;;;;;9.60;2.60;;;;;;;;;;4949876;28;20027;-67
2022/07/08 04:44:34;;;;;;;10.63;3.15;;;;;;;;;;4950640;28;20031;-69
2022/07/08 04:47:20;;;;;;;5.97;2.53;;;;;;;;;;4963019;28;20390;-68
2022/07/08 04:50:05;;;;;;;9.43;2.67;;;;;;;;;;4949881;28;20360;-69
2022/07/08 04:52:51;;;;;;;6.15;2.35;;;;;;;;;;4949573;28;20023;-69
2022/07/08 04:55:36;;;;;;;9.40;2.60;;;;;;;;;;4949684;28;20015;-69
2022/07/08 04:58:22;;;;;;;9.10;2.60;;;;;;;;;;4944090;28;20039;-71
2022/07/08 05:01:08;;;;;;;12.20;2.97;;;;;;;;;;4939233;28;20103;-70
2022/07/08 05:03:54;;;;;;;6.20;2.65;;;;;;;;;;4948903;28;20023;-70
2022/07/08 05:06:39;;;;;;;9.45;2.63;;;;;;;;;;4957741;28;20027;-68
2022/07/08 05:09:25;;;;;;;7.75;2.85;;;;;;;;;;4948574;28;20475;-72
2022/07/08 05:12:11;;;;;;;5.32;2.38;;;;;;;;;;4949501;28;20020;-73
2022/07/08 05:14:56;;;;;;;7.28;2.80;;;;;;;;;;4949675;28;20419;-71
2022/07/08 05:17:42;;;;;;;7.03;2.50;;;;;;;;;;4959622;28;20038;-73
2022/07/08 05:20:27;;;;;;;8.65;2.90;;;;;;;;;;4937724;28;20436;-72
2022/07/08 05:23:13;;;;;;;8.07;2.55;;;;;;;;;;4947713;28;20042;-71
2022/07/08 05:25:58;;;;;;;7.15;2.40;;;;;;;;;;4949641;28;20023;-69
2022/07/08 05:28:44;;;;;;;7.35;2.35;;;;;;;;;;4953494;28;20027;-70
2022/07/08 05:31:30;;;;;;;9.30;2.38;;;;;;;;;;4955010;28;20019;-70
2022/07/08 05:34:15;;;;;;;7.97;2.70;;;;;;;;;;4951632;28;20467;-69
2022/07/08 05:37:01;;;;;;;10.73;2.08;;;;;;;;;;4950572;28;20478;-69
2022/07/08 05:39:46;;;;;;;6.18;1.83;;;;;;;;;;4954642;28;20035;-74
2022/07/08 05:42:32;;;;;;;10.80;2.60;;;;;;;;;;4948671;28;20024;-74
2022/07/08 05:45:18;;;;;;;9.52;2.45;;;;;;;;;;4950386;28;20039;-70
2022/07/08 05:48:03;;;;;;;14.77;2.78;;;;;;;;;;4951888;28;20035;-74
2022/07/08 05:50:49;;;;;;;5.13;2.28;;;;;;;;;;4942943;28;20030;-74
2022/07/08 05:53:34;;;;;;;9.35;3.15;;;;;;;;;;4954635;28;20249;-73
2022/07/08 05:56:21;;;;;;;9.70;2.17;;;;;;;;;;4952700;28;20031;-74
2022/07/08 05:59:06;;;;;;;5.10;1.90;;;;;;;;;;4950677;28;20383;-74
2022/07/08 06:01:52;;;;;;;12.32;2.58;;;;;;;;;;4952643;28;20055;-75
2022/07/08 06:04:37;;;;;;;11.77;2.53;;;;;;;;;;4954144;28;20027;-69
2022/07/08 06:07:23;;;;;;;8.70;2.78;;;;;;;;;;4948706;28;20063;-69
2022/07/08 06:10:09;;;;;;;10.98;3.50;;;;;;;;;;4951993;28;20023;-70
2022/07/08 06:12:54;;;;;;;7.55;2.10;;;;;;;;;;4950631;28;20111;-72
2022/07/08 06:15:40;;;;;;;9.35;2.45;;;;;;;;;;4950999;28;20027;-71
2022/07/08 06:18:26;;;;;;;8.93;2.50;;;;;;;;;;4953823;28;20043;-69
2022/07/08 06:21:11;;;;;;;11.32;2.35;;;;;;;;;;4951696;28;20106;-70
2022/07/08 06:23:57;;;;;;;7.28;2.35;;;;;;;;;;4950844;28;20074;-74
2022/07/08 06:26:43;;;;;;;8.70;3.22;;;;;;;;;;4952708;28;20019;-74
2022/07/08 06:29:29;;;;;;;10.90;2.83;;;;;;;;;;4952803;28;20053;-73
2022/07/08 06:32:15;;;;;;;12.77;3.08;;;;;;;;;;4959430;28;20026;-74
2022/07/08 06:35:00;;;;;;;7.68;2.30;;;;;;;;;;4950148;28;20023;-75
2022/07/08 06:37:46;;;;;;;9.45;2.83;;;;;;;;;;4948819;28;20035;-72
2022/07/08 06:40:31;;;;;;;6.40;2.00;;;;;;;;;;4951170;28;20478;-68
2022/07/08 06:43:17;;;;;;;7.15;2.22;;;;;;;;;;4945784;28;20120;-73
2022/07/08 06:46:03;;;;;;;6.75;2.40;;;;;;;;;;4942286;28;20035;-74
2022/07/08 06:48:49;;;;;;;8.27;2.20;;;;;;;;;;4948576;28;20119;-74
2022/07/08 06:51:34;;;;;;;8.10;2.47;;;;;;;;;;4946394;28;20452;-74
2022/07/08 06:54:35;;;;;;;7.65;2.42;;;;;;;;;;4953856;28;20031;-73
2022/07/08 06:57:21;;;;;;;7.28;2.30;;;;;;;;;;4951113;28;20050;-73
2022/07/08 07:00:07;;;;;;;11.38;2.35;;;;;;;;;;4946596;28;20497;-74
2022/07/08 07:02:53;;;;;;;9.00;2.08;;;;;;;;;;4950959;28;20027;-74
2022/07/08 07:05:38;;;;;;;5.07;1.42;;;;;;;;;;4951272;28;20381;-73
2022/07/08 07:08:24;;;;;;;7.68;2.00;;;;;;;;;;4947317;28;20059;-74
2022/07/08 07:11:09;;;;;;;8.00;2.05;;;;;;;;;;4940154;28;20424;-74
2022/07/08 07:13:55;;;;;;;8.05;2.42;;;;;;;;;;4951617;28;20019;-75
2022/07/08 07:16:41;;;;;;;10.88;2.25;;;;;;;;;;4953540;28;20054;-70
2022/07/08 07:19:27;;;;;;;7.57;2.10;;;;;;;;;;4950878;28;20501;-70
2022/07/08 07:22:14;;;;;;;7.25;2.15;;;;;;;;;;4951160;28;20020;-69
2022/07/08 07:24:59;;;;;;;5.05;1.73;;;;;;;;;;4958263;28;20039;-69
2022/07/08 07:27:45;;;;;;;8.40;2.15;;;;;;;;;;4963272;28;20019;-70
2022/07/08 07:30:31;;;;;;;7.53;2.10;;;;;;;;;;4951270;28;20031;-70
2022/07/08 07:33:16;;;;;;;8.50;2.05;;;;;;;;;;4965430;28;20034;-72
2022/07/08 07:36:02;;;;;;;7.10;1.98;;;;;;;;;;4952093;28;20035;-68
2022/07/08 07:38:48;;;;;;;8.30;2.55;;;;;;;;;;4951070;28;20073;-69
2022/07/08 07:41:33;;;;;;;4.00;1.48;;;;;;;;;;4952740;28;20533;-69
2022/07/08 07:44:19;;;;;;;5.63;1.83;;;;;;;;;;4953216;28;20038;-71
2022/07/08 07:47:05;;;;;;;6.78;1.95;;;;;;;;;;4947752;28;20023;-72
2022/07/08 07:49:50;;;;;;;6.70;2.20;;;;;;;;;;4952585;28;20081;-72
2022/07/08 07:52:36;;;;;;;9.43;2.10;;;;;;;;;;4949400;28;20063;-71
2022/07/08 07:55:22;;;;;;;8.68;2.40;;;;;;;;;;4948873;28;20590;-76
2022/07/08 07:58:07;;;;;;;6.43;1.50;;;;;;;;;;4949551;28;20032;-75
2022/07/08 08:00:53;;;;;;;4.50;1.98;;;;;;;;;;4948653;28;20467;-74
2022/07/08 08:03:38;;;;;;;4.95;1.75;;;;;;;;;;4947657;28;20050;-74
2022/07/08 08:06:24;;;;;;;4.07;1.85;;;;;;;;;;4950687;28;20497;-74
2022/07/08 08:09:10;;;;;;;8.15;1.85;;;;;;;;;;4950092;28;20028;-77
2022/07/08 08:11:55;;;;;;;6.53;1.58;;;;;;;;;;4949298;28;20398;-71
2022/07/08 08:14:41;;;;;;;9.02;2.45;;;;;;;;;;4951119;28;20093;-71
2022/07/08 08:17:26;;;;;;;7.07;2.00;;;;;;;;;;4952491;28;20037;-70
2022/07/08 08:20:12;;;;;;;8.48;1.90;;;;;;;;;;4948697;28;20114;-71
2022/07/08 08:22:58;;;;;;;6.68;2.03;;;;;;;;;;4948853;28;20098;-73
2022/07/08 08:25:44;;;;;;;6.50;1.95;;;;;;;;;;4950444;28;20457;-71
2022/07/08 08:28:29;;;;;;;6.65;1.70;;;;;;;;;;4947191;28;20395;-79
2022/07/08 08:31:15;;;;;;;6.95;1.90;;;;;;;;;;4948482;28;20667;-73
2022/07/08 08:34:01;;;;;;;7.10;2.05;;;;;;;;;;4949933;28;20027;-78
2022/07/08 08:36:46;;;;;;;6.00;1.83;;;;;;;;;;4947993;28;20058;-79
2022/07/08 08:39:32;;;;;;;4.53;1.80;;;;;;;;;;4962793;28;20113;-77
2022/07/08 08:42:18;;;;;;;6.45;2.08;;;;;;;;;;4951825;28;20034;-79
2022/07/08 08:45:05;;;;;;;5.68;1.80;;;;;;;;;;4950530;28;20050;-78
2022/07/08 08:47:50;;;;;;;5.50;1.85;;;;;;;;;;4945799;28;20023;-72
2022/07/08 08:50:55;;;;;;;5.45;1.60;;;;;;;;;;4948092;28;20058;-74
2022/07/08 08:53:42;;;;;;;7.15;1.67;;;;;;;;;;4946126;28;20080;-76
2022/07/08 08:56:28;;;;;;;5.65;1.77;;;;;;;;;;4949682;28;20046;-76
2022/07/08 08:59:14;;;;;;;5.35;1.70;;;;;;;;;;4949273;28;20062;-78
2022/07/08 09:02:00;;;;;;;7.30;1.55;;;;;;;;;;4943408;28;20034;-77
2022/07/08 09:04:47;;;;;;;6.68;1.75;;;;;;;;;;4944866;28;20110;-73
2022/07/08 09:07:32;;;;;;;4.10;1.45;;;;;;;;;;4946692;28;20124;-71
2022/07/08 09:10:18;;;;;;;6.20;1.60;;;;;;;;;;4949009;28;20552;-77
2022/07/08 09:13:05;;;;;;;3.75;1.38;;;;;;;;;;4948990;28;20046;-77
2022/07/08 09:15:54;;;;;;;6.43;1.67;;;;;;;;;;4948249;28;20185;-75
2022/07/08 09:18:40;;;;;;;;;;;;;;;;;;4950541;28;20042;-74
2022/07/08 09:21:29;;;;;;;4.18;1.63;;;;;;;;;;4950823;28;19973;-73
2022/07/08 09:24:18;;;;;;;5.35;1.80;;;;;;;;;;4950844;28;20035;-70
2022/07/08 09:27:08;;;;;;;6.20;1.77;;;;;;;;;;4945751;28;20117;-68
2022/07/08 09:29:53;;;;;;;;;;;;;;;;;;4952087;28;20035;-69
2022/07/08 09:32:39;;;;;;;5.15;1.27;;;;;;;;;;4941865;28;19943;-70
2022/07/08 09:35:36;;;;;;;6.97;1.60;;;;;;;;;;4951150;28;20381;-71
2022/07/08 09:38:22;;;;;;;5.65;1.63;;;;;;;;;;4950318;28;20035;-69
2022/07/08 09:41:16;;;;;;;4.88;1.80;;;;;;;;;;4957643;28;20471;-69
2022/07/08 09:44:02;;;;;;;7.13;1.67;;;;;;;;;;4950088;28;20379;-75
2022/07/08 09:46:48;;;;;;;5.90;1.50;;;;;;;;;;4949505;28;20035;-68
2022/07/08 09:49:34;;;;;;;5.88;1.70;;;;;;;;;;4949457;28;20509;-69
2022/07/08 09:52:20;;;;;;;4.65;1.80;;;;;;;;;;4951458;28;20368;-67
2022/07/08 09:55:06;;;;;;;5.35;1.77;;;;;;;;;;4949026;28;20501;-68
2022/07/08 09:57:52;;;;;;;5.28;1.83;;;;;;;;;;4970308;28;20528;-69
2022/07/08 10:00:37;;;;;;;7.30;1.58;;;;;;;;;;4948081;28;20436;-79
2022/07/08 10:03:24;;;;;;;6.47;1.88;;;;;;;;;;4948319;28;20408;-71
2022/07/08 10:06:10;;;;;;;7.38;1.80;;;;;;;;;;4948522;28;20425;-79
2022/07/08 10:08:55;;;;;;;5.75;2.00;;;;;;;;;;4945845;28;20105;-78
2022/07/08 10:11:42;;;;;;;7.90;2.13;;;;;;;;;;4952240;28;20405;-75
2022/07/08 10:14:28;;;;;;;7.13;2.38;;;;;;;;;;4953272;28;20035;-77
2022/07/08 10:17:16;;;;;;;4.90;1.70;;;;;;;;;;4960240;28;20126;-78
2022/07/08 10:20:02;;;;;;;4.65;1.55;;;;;;;;;;4952491;28;20031;-69
2022/07/08 10:22:49;;;;;;;7.32;1.95;;;;;;;;;;4949012;28;20027;-68
2022/07/08 10:25:35;;;;;;;11.88;3.75;;;;;;;;;;4940423;28;20023;-69
2022/07/08 10:28:32;;;;;;;7.45;2.30;;;;;;;;;;4954487;28;20029;-69
2022/07/08 10:31:22;;;;;;;5.15;2.22;;;;;;;;;;4951539;28;20078;-78
2022/07/08 10:34:08;;;;;;;6.53;1.90;;;;;;;;;;4953378;28;20141;-76
2022/07/08 10:36:54;;;;;;;7.95;1.70;;;;;;;;;;4952565;28;20070;-75
2022/07/08 10:39:40;;;;;;;5.65;1.80;;;;;;;;;;4966995;28;20085;-78
2022/07/08 10:42:26;;;;;;;5.93;1.73;;;;;;;;;;4941388;28;20472;-77
2022/07/08 10:45:16;;;;;;;8.63;2.13;;;;;;;;;;4993573;28;20585;-77
2022/07/08 10:48:08;;;;;;;5.03;1.65;;;;;;;;;;4952504;28;20057;-77
2022/07/08 10:50:54;;;;;;;7.38;2.20;;;;;;;;;;4951310;28;20058;-78
2022/07/08 10:53:51;;;;;;;5.65;1.60;;;;;;;;;;4951047;28;20031;-77
2022/07/08 10:56:49;;;;;;;9.05;2.22;;;;;;;;;;4955519;28;20118;-77
2022/07/08 10:59:38;;;;;;;5.50;2.23;;;;;;;;;;4964823;28;20042;-78
2022/07/08 11:02:26;;;;;;;6.23;2.10;;;;;;;;;;4952186;28;20467;-77
2022/07/08 11:05:30;;;;;;;9.07;2.20;;;;;;;;;;4956399;28;20023;-79
2022/07/08 11:08:18;;;;;;;5.65;1.98;;;;;;;;;;4945434;28;20019;-77
2022/07/08 11:11:05;;;;;;;6.78;2.00;;;;;;;;;;4954782;28;20031;-77
2022/07/08 11:13:51;;;;;;;3.88;1.40;;;;;;;;;;4954178;28;20035;-78
2022/07/08 11:16:36;;;;;;;6.78;1.83;;;;;;;;;;4951502;28;20058;-80
2022/07/08 11:19:30;;;;;;;5.93;2.10;;;;;;;;;;4952377;28;20564;-76
2022/07/08 11:22:16;;;;;;;6.18;1.65;;;;;;;;;;4959526;28;20042;-75
2022/07/08 11:25:02;;;;;;;7.28;1.75;;;;;;;;;;4950485;28;20102;-74
2022/07/08 11:27:47;;;;;;;4.15;1.60;;;;;;;;;;4953071;28;20027;-72
2022/07/08 11:30:33;;;;;;;5.55;1.80;;;;;;;;;;4951362;28;20027;-78
2022/07/08 11:33:19;;;;;;;7.82;2.00;;;;;;;;;;4953924;28;20015;-77
2022/07/08 11:36:31;;;;;;;3.85;1.30;;;;;;;;;;4950061;28;20023;-75
2022/07/08 11:39:17;;;;;;;7.10;2.22;;;;;;;;;;4943107;28;20039;-77
2022/07/08 11:42:03;;;;;;;4.47;1.30;;;;;;;;;;4950764;28;20080;-75
2022/07/08 11:44:48;;;;;;;7.63;1.73;;;;;;;;;;4978050;28;20150;-78
2022/07/08 11:47:34;;;;;;;6.43;1.73;;;;;;;;;;4950101;28;20106;-77
2022/07/08 11:50:20;;;;;;;6.65;1.63;;;;;;;;;;4949552;28;20478;-80
2022/07/08 11:53:05;;;;;;;6.55;1.65;;;;;;;;;;4950471;28;20064;-78
2022/07/08 11:55:51;;;;;;;6.20;1.80;;;;;;;;;;4949155;28;20019;-80
2022/07/08 11:58:38;;;;;;;6.88;1.52;;;;;;;;;;4988325;28;20119;-82
2022/07/08 12:01:24;;;;;;;3.80;1.30;;;;;;;;;;4940712;28;20019;-79
2022/07/08 12:04:10;;;;;;;7.65;1.75;;;;;;;;;;4950017;28;20033;-77
2022/07/08 12:06:58;;;;;;;3.60;1.50;;;;;;;;;;4954378;28;20038;-77
2022/07/08 12:09:51;;;;;;;11.30;2.25;;;;;;;;;;4950907;28;20023;-77
2022/07/08 12:12:37;;;;;;;5.75;1.83;;;;;;;;;;4950792;28;20023;-76
2022/07/08 12:15:23;;;;;;;7.18;1.60;;;;;;;;;;4950631;28;20149;-76
2022/07/08 12:18:08;;;;;;;5.75;1.83;;;;;;;;;;4950698;28;20085;-77
2022/07/08 12:20:55;;;;;;;5.22;1.48;;;;;;;;;;4951568;28;20106;-78
2022/07/08 12:23:44;;;;;;;2.42;1.23;;;;;;;;;;4945810;28;20115;-77
2022/07/08 12:26:30;;;;;;;4.55;1.55;;;;;;;;;;4951513;28;20034;-74
2022/07/08 12:29:16;;;;;;;7.30;1.40;;;;;;;;;;4951501;28;20443;-79
2022/07/08 12:32:02;;;;;;;2.60;1.10;;;;;;;;;;4952344;28;20106;-77
2022/07/08 12:34:51;;;;;;;4.35;1.70;;;;;;;;;;4950382;28;20073;-75
2022/07/08 12:37:38;;;;;;;8.15;1.58;;;;;;;;;;4943533;28;20023;-77
2022/07/08 12:40:24;;;;;;;7.13;1.70;;;;;;;;;;4958698;28;20114;-77
2022/07/08 12:43:10;;;;;;;5.25;1.70;;;;;;;;;;4952658;28;20035;-78
2022/07/08 12:45:56;;;;;;;6.32;1.63;;;;;;;;;;4950362;28;20038;-78
2022/07/08 12:48:42;;;;;;;4.55;1.60;;;;;;;;;;4949242;28;20027;-75
2022/07/08 12:51:27;;;;;;;5.70;1.50;;;;;;;;;;4949488;28;20056;-78
2022/07/08 12:54:14;;;;;;;6.25;1.75;;;;;;;;;;4973633;28;20547;-78
2022/07/08 12:57:00;;;;;;;4.78;1.70;;;;;;;;;;4950184;28;20050;-78
2022/07/08 12:59:45;;;;;;;4.25;1.30;;;;;;;;;;4953092;28;20088;-79
2022/07/08 13:02:31;;;;;;;4.35;1.38;;;;;;;;;;4951913;28;20027;-77
2022/07/08 13:05:16;;;;;;;5.45;1.70;;;;;;;;;;4970467;28;20386;-76
2022/07/08 13:08:02;;;;;;;6.72;2.15;;;;;;;;;;4948307;28;20023;-82
2022/07/08 13:10:47;;;;;;;7.85;1.73;;;;;;;;;;4950705;28;20030;-85
2022/07/08 13:13:33;;;;;;;6.30;1.50;;;;;;;;;;4949885;28;20023;-77
2022/07/08 13:16:19;;;;;;;8.02;1.65;;;;;;;;;;4949655;28;20031;-62
2022/07/08 13:19:05;;;;;;;5.35;1.70;;;;;;;;;;4944382;28;20047;-62
2022/07/08 13:21:50;;;;;;;5.03;1.92;;;;;;;;;;4951142;28;20051;-62
2022/07/08 13:24:36;;;;;;;9.80;1.75;;;;;;;;;;4949456;28;20113;-62
2022/07/08 13:27:22;;;;;;;5.00;1.45;;;;;;;;;;4949790;28;20031;-61
2022/07/08 13:30:09;;;;;;;5.82;1.60;;;;;;;;;;4952306;28;20023;-59
2022/07/08 13:32:55;;;;;;;4.53;1.58;;;;;;;;;;4950087;28;20047;-61
2022/07/08 13:35:40;;;;;;;5.53;1.63;;;;;;;;;;4944348;28;20023;-60
2022/07/08 13:38:26;;;;;;;6.43;1.83;;;;;;;;;;5000700;28;20041;-62
2022/07/08 13:41:12;;;;;;;7.10;1.83;;;;;;;;;;4954158;28;20027;-61
2022/07/08 13:43:58;;;;;;;2.75;1.50;;;;;;;;;;4946318;28;20026;-78
2022/07/08 13:46:45;;;;;;;4.40;1.38;;;;;;;;;;4950065;28;20077;-63
2022/07/08 13:49:30;;;;;;;4.63;1.40;;;;;;;;;;4960696;28;20019;-64
2022/07/08 13:52:16;;;;;;;3.85;1.73;;;;;;;;;;4953231;28;20031;-64
2022/07/08 13:55:02;;;;;;;4.70;1.50;;;;;;;;;;4958836;28;20384;-63
2022/07/08 13:57:47;;;;;;;6.40;1.80;;;;;;;;;;4959806;28;20449;-64
2022/07/08 14:00:33;;;;;;;7.13;1.65;;;;;;;;;;4961052;28;20022;-84
2022/07/08 14:03:21;;;;;;;5.15;1.75;;;;;;;;;;4947398;28;20027;-77
2022/07/08 14:06:07;;;;;;;4.13;1.30;;;;;;;;;;4961541;28;20088;-78
2022/07/08 14:08:53;;;;;;;6.53;1.88;;;;;;;;;;4952585;28;20023;-78
2022/07/08 14:11:39;;;;;;;5.57;1.30;;;;;;;;;;4953727;28;20023;-76
2022/07/08 14:14:24;;;;;;;5.60;1.60;;;;;;;;;;4953338;28;20035;-77
2022/07/08 14:17:10;;;;;;;4.25;1.90;;;;;;;;;;4960070;28;20465;-76
2022/07/08 14:19:55;;;;;;;4.93;2.03;;;;;;;;;;4956931;28;20413;-81
2022/07/08 14:22:41;;;;;;;6.38;1.88;;;;;;;;;;4962572;28;20068;-80
2022/07/08 14:25:27;;;;;;;9.75;1.80;;;;;;;;;;4952554;28;20069;-79
2022/07/08 14:28:18;;;;;;;4.13;1.50;;;;;;;;;;4968611;28;20035;-80
2022/07/08 14:31:07;;;;;;;3.30;1.60;;;;;;;;;;4965174;28;20027;-79
2022/07/08 14:33:52;;;;;;;4.00;1.77;;;;;;;;;;4961872;28;20035;-80
2022/07/08 14:36:38;;;;;;;6.30;1.67;;;;;;;;;;4956767;28;20042;-80
2022/07/08 14:39:24;;;;;;;5.63;2.13;;;;;;;;;;4956040;28;20122;-77
2022/07/08 14:42:09;;;;;;;10.40;1.60;;;;;;;;;;4958785;28;20363;-85
2022/07/08 14:44:55;;;;;;;5.97;1.50;;;;;;;;;;4962600;28;20035;-85
2022/07/08 14:47:41;;;;;;;4.45;1.42;;;;;;;;;;4949316;28;20406;-85
2022/07/08 14:50:27;;;;;;;4.03;1.75;;;;;;;;;;4951554;28;20019;-84
2022/07/08 14:53:12;;;;;;;4.80;1.55;;;;;;;;;;4952894;28;20039;-85
2022/07/08 14:55:58;;;;;;;5.32;1.63;;;;;;;;;;4955622;28;20027;-81
2022/07/08 14:58:43;;;;;;;5.93;1.48;;;;;;;;;;4953532;28;20062;-85
2022/07/08 15:01:29;;;;;;;3.83;1.60;;;;;;;;;;4957374;28;20039;-85
2022/07/08 15:04:14;;;;;;;4.03;1.30;;;;;;;;;;4962852;28;20124;-85
2022/07/08 15:07:00;;;;;;;6.63;1.33;;;;;;;;;;4958869;28;20061;-87
2022/07/08 15:09:46;;;;;;;3.60;1.45;;;;;;;;;;4962784;28;20038;-85
2022/07/08 15:12:31;;;;;;;3.35;1.40;;;;;;;;;;4950782;28;20023;-85
2022/07/08 15:15:17;;;;;;;5.00;1.80;;;;;;;;;;4951748;28;20033;-80
2022/07/08 15:18:02;;;;;;;7.93;2.00;;;;;;;;;;4971648;28;20038;-81
2022/07/08 15:20:48;;;;;;;5.40;2.00;;;;;;;;;;4961793;28;20073;-82
2022/07/08 15:23:34;;;;;;;8.13;2.30;;;;;;;;;;4951520;28;20037;-82
2022/07/08 15:26:19;;;;;;;5.35;1.80;;;;;;;;;;4969227;28;20030;-83
2022/07/08 15:29:05;;;;;;;7.85;1.90;;;;;;;;;;4979312;28;20018;-81
2022/07/08 15:31:51;;;;;;;4.70;1.30;;;;;;;;;;4977075;28;20444;-79
2022/07/08 15:34:36;;;;;;;4.63;1.60;;;;;;;;;;4957216;28;20042;-80
2022/07/08 15:37:22;;;;;;;4.32;1.50;;;;;;;;;;4930918;28;20032;-76
2022/07/08 15:40:08;;;;;;;6.88;1.90;;;;;;;;;;4941870;28;20070;-77
2022/07/08 15:42:53;;;;;;;7.32;1.60;;;;;;;;;;4920682;28;20493;-77
2022/07/08 15:45:39;;;;;;;4.55;1.52;;;;;;;;;;4922893;28;20063;-77
2022/07/08 15:48:24;;;;;;;6.32;1.75;;;;;;;;;;4919043;28;20035;-79
2022/07/08 15:51:10;;;;;;;5.53;1.77;;;;;;;;;;4939709;28;20086;-86
2022/07/08 15:53:56;;;;;;;5.55;1.60;;;;;;;;;;4941848;28;20036;-79
2022/07/08 15:56:43;;;;;;;5.20;1.40;;;;;;;;;;4947760;28;20058;-79
2022/07/08 15:59:30;;;;;;;6.78;1.38;;;;;;;;;;4930411;28;20027;-80
2022/07/08 16:02:16;;;;;;;3.65;1.60;;;;;;;;;;4933695;28;20039;-79
2022/07/08 16:05:01;;;;;;;4.35;1.23;;;;;;;;;;4938492;28;20522;-79
2022/07/08 16:07:47;;;;;;;7.72;1.90;;;;;;;;;;4921725;28;20039;-79
2022/07/08 16:10:35;;;;;;;6.97;1.42;;;;;;;;;;4953092;28;20440;-79
2022/07/08 16:13:20;;;;;;;5.40;1.58;;;;;;;;;;4960187;28;20096;-84
2022/07/08 16:16:06;;;;;;;6.22;2.10;;;;;;;;;;4976552;28;20027;-83
2022/07/08 16:18:52;;;;;;;4.13;2.20;;;;;;;;;;4976143;28;20104;-83
2022/07/08 16:21:37;;;;;;;7.68;1.70;;;;;;;;;;4949888;28;20112;-84
2022/07/08 16:24:25;;;;;;;6.68;1.88;;;;;;;;;;4951595;28;20039;-83
2022/07/08 16:27:10;;;;;;;3.45;1.42;;;;;;;;;;4955717;28;20077;-77
2022/07/08 16:29:56;;;;;;;4.75;1.85;;;;;;;;;;4952199;28;20077;-76
2022/07/08 16:32:42;;;;;;;7.75;2.35;;;;;;;;;;4962163;28;20026;-76
2022/07/08 16:35:27;;;;;;;6.18;1.65;;;;;;;;;;4940689;28;20485;-77
2022/07/08 16:38:13;;;;;;;6.90;1.38;;;;;;;;;;4963363;28;20047;-76
2022/07/08 16:40:59;;;;;;;6.55;1.52;;;;;;;;;;4993324;28;20042;-76